• Join FlightAware (Why Join?)
  • Login
  • US Flag 
05:50AM EDT


 

Airport Tracker/Info


-or-


 

Live Flight TrackerFlight Track Log ✈ DAL6035 ✈ 04-Mar-2014 ✈ KLGA - KMHT

Flight Track Log - Related Links

Times and Time Zones

All times are in EST time to prevent confusion due to time zone crossing. See the DAL6035 flight status page for this flight to view local times or setup timezone preferences in your user account.

Time Position Orientation Groundspeed Altitude Reporting Facility
EST Latitude Longitude Course Direction KTS MPH feet Rate Location/Type
03:30PM 40.7667 -73.8500 40° Northeast 164 189 1,100  Level New York TRACON
03:31PM 40.7333 -73.7833 123° Southeast 230 265 3,100 2,100 Climbing New York TRACON
03:32PM 40.8000 -73.7500 21° North 246 283 5,300 2,220 Climbing New York TRACON
03:33PM 41.0190 -73.6101 39° Northeast  Level Estimated
03:33PM 40.8667 -73.7000 30° Northeast 273 314 7,600  Level New York TRACON
03:34PM 41.0994 -73.5222 39° Northeast  Level Estimated
03:35PM 41.1798 -73.4341 40° Northeast  Level Estimated
03:35PM 41.0053 -73.6144 25° Northeast 300 345 11,600  Level Boston Center
03:36PM 41.2498 -73.3571 40° Northeast  Level Estimated
03:36PM 41.0908 -73.5614 25° Northeast 339 390 13,000  Level Boston Center
03:37PM 41.1775 -73.5061 26° Northeast 347 399 14,800 1,500 Climbing Boston Center
03:38PM 41.2761 -73.4428 26° Northeast 365 420 16,100 1,020 Climbing Boston Center
03:39PM 41.3717 -73.3831 25° Northeast 377 434 17,000 420 Climbing Boston Center
03:40PM 41.4692 -73.3200 26° Northeast 385 443 17,000  Level Boston Center
03:41PM 41.5511 -73.2203 42° Northeast 402 463 17,000  Level Boston Center
03:42PM 41.6383 -73.1086 44° Northeast 403 464 17,000  Level Boston Center
03:43PM 41.7372 -73.0375 28° Northeast 403 464 17,000  Level Boston Center
03:44PM 41.8386 -72.9678 27° Northeast 407 468 17,000  Level Boston Center
03:45PM 41.9375 -72.8986 27° Northeast 401 461 17,000  Level Boston Center
03:46PM 42.0367 -72.8289 28° Northeast 398 458 17,000 -780 Level Boston Center
03:47PM 42.1328 -72.7614 28° Northeast 389 448 15,500 -1,020 Descending Boston Center
03:48PM 42.2358 -72.6886 28° Northeast 387 445 15,000 -300 Descending Boston Center
03:49PM 42.3358 -72.6189 27° Northeast 402 463 15,000  Level Boston Center
03:50PM 42.4378 -72.5472 27° Northeast 409 471 15,000 -300 Level Boston Center
03:51PM 42.5242 -72.4661 35° Northeast 388 447 14,400 -960 Descending Boston Center
03:52PM 42.5836 -72.3622 52° Northeast 356 410 13,100 -1,560 Descending Boston Center
03:53PM 42.6422 -72.2542 54° Northeast 333 383 11,300 -1,860 Descending Boston Center
03:54PM 42.6956 -72.1575 53° Northeast 320 368 9,400 -1,140 Descending Boston Center
03:56PM 42.7464 -72.0633 54° Northeast 309 356 9,000 -240 Descending Boston Center
03:57PM 42.8000 -71.9633 54° Northeast 306 352 9,000 -300 Level Boston Center
03:58PM 42.8478 -71.8686 55° Northeast 304 350 8,500 -1,020 Descending Boston Center
03:59PM 42.9008 -71.7903 47° Northeast 283 326 7,000 -1,680 Descending Boston Center
04:00PM 42.9564 -71.7086 47° Northeast 274 315 5,100 -1,680 Descending Boston Center
04:01PM 43.0058 -71.6411 45° Northeast 252 290 3,700 -1,380 Descending Boston Center
04:02PM 43.0489 -71.5792 46° Northeast 225 259 2,400 -840 Descending Boston Center
04:03PM 43.0403 -71.5086 99° East 188 216 2,000 -360 Descending Boston Center
04:04PM 43.0006 -71.4739 147° Southeast 162 186 1,700 -600 Descending Boston Center
04:05PM 42.9653 -71.4536 157° South 142 163 800 -720 Descending Boston Center
04:06PM 42.9333 -71.4339 156° South 135 155 300 -540 Descending Boston Center